Time;durP1;ratioP1;P1;durP2;ratioP2;P2;SDS_P1;SDS_P2;PMS_P1;PMS_P2;Temp;Humidity;BMP_temperature;BMP_pressure;BME280_temperature;BME280_humidity;BME280_pressure;Samples;Min_cycle;Max_cycle;Signal;HPM_P1;HPM_P2
2024/01/12 00:00:47;;;;;;;49.23;23.63;;;-0.60;99.90;;;;;;5094510;28;20216;-46
2024/01/12 00:03:12;;;;;;;38.87;22.37;;;-0.60;99.90;;;;;;5093771;28;20272;-47
2024/01/12 00:05:38;;;;;;;43.50;23.33;;;-0.50;99.90;;;;;;5095738;28;20754;-47
2024/01/12 00:08:04;;;;;;;50.13;23.60;;;-0.50;99.90;;;;;;5093228;28;20190;-48
2024/01/12 00:10:31;;;;;;;43.37;24.20;;;-0.50;99.90;;;;;;5076677;28;20186;-46
2024/01/12 00:12:57;;;;;;;44.23;23.80;;;-0.50;99.90;;;;;;5094680;28;20176;-46
2024/01/12 00:15:23;;;;;;;40.53;22.87;;;-0.50;99.90;;;;;;5094955;28;20194;-45
2024/01/12 00:17:50;;;;;;;45.00;24.00;;;-0.60;99.90;;;;;;5093677;28;20201;-46
2024/01/12 00:20:15;;;;;;;44.70;24.37;;;-0.50;99.90;;;;;;5094579;28;20179;-47
2024/01/12 00:22:41;;;;;;;42.90;24.77;;;-0.50;99.90;;;;;;5094751;28;20442;-46
2024/01/12 00:25:09;;;;;;;44.30;24.10;;;-0.50;99.90;;;;;;5094236;28;20198;-46
2024/01/12 00:27:35;;;;;;;49.50;24.47;;;-0.50;99.90;;;;;;5094801;28;20161;-44
2024/01/12 00:30:02;;;;;;;40.67;23.00;;;-0.50;99.90;;;;;;5095198;28;20421;-46
2024/01/12 00:32:27;;;;;;;41.90;22.60;;;-0.50;99.90;;;;;;5094901;28;20226;-44
2024/01/12 00:34:53;;;;;;;46.17;24.33;;;-0.50;99.90;;;;;;5093034;28;20516;-45
2024/01/12 00:37:21;;;;;;;43.87;23.53;;;-0.50;99.90;;;;;;5094289;28;20193;-46
2024/01/12 00:39:47;;;;;;;50.10;26.97;;;-0.50;99.90;;;;;;5094187;28;20193;-45
2024/01/12 00:42:14;;;;;;;61.63;33.00;;;-0.50;99.90;;;;;;5094019;28;20625;-45
2024/01/12 00:44:39;;;;;;;46.37;26.47;;;-0.50;99.90;;;;;;5093982;28;20169;-46
2024/01/12 00:47:06;;;;;;;49.27;26.07;;;-0.50;99.90;;;;;;5094288;28;20435;-47
2024/01/12 00:49:31;;;;;;;48.60;24.93;;;-0.50;99.90;;;;;;5076086;28;21025;-46
2024/01/12 00:51:57;;;;;;;41.97;23.97;;;-0.50;99.90;;;;;;5092847;28;20725;-47
2024/01/12 00:54:26;;;;;;;44.27;24.50;;;-0.50;99.90;;;;;;5092864;28;20197;-46
2024/01/12 00:56:52;;;;;;;43.43;25.50;;;-0.50;99.90;;;;;;5093889;28;20206;-46
2024/01/12 00:59:19;;;;;;;45.43;23.77;;;-0.50;99.90;;;;;;5093864;28;20424;-45
2024/01/12 01:01:48;;;;;;;47.77;24.33;;;-0.40;99.90;;;;;;5093674;28;20463;-46
2024/01/12 01:04:13;;;;;;;49.10;25.33;;;-0.50;99.90;;;;;;5093706;28;20508;-47
2024/01/12 01:06:42;;;;;;;50.53;25.13;;;-0.40;99.90;;;;;;5093653;28;20466;-46
2024/01/12 01:09:14;;;;;;;44.17;24.50;;;-0.40;99.90;;;;;;5093150;28;20183;-47
2024/01/12 01:11:46;;;;;;;50.17;26.90;;;-0.40;99.90;;;;;;5093915;28;20429;-46
2024/01/12 01:14:12;;;;;;;46.90;25.10;;;-0.40;99.90;;;;;;5094565;28;20411;-45
2024/01/12 01:16:39;;;;;;;48.47;24.43;;;-0.40;99.90;;;;;;5092619;28;20482;-47
2024/01/12 01:19:07;;;;;;;48.30;26.23;;;-0.40;99.90;;;;;;5093837;28;20193;-45
2024/01/12 01:21:33;;;;;;;47.53;22.83;;;-0.40;99.90;;;;;;5094002;28;20477;-44
2024/01/12 01:23:59;;;;;;;48.40;25.13;;;-0.40;99.90;;;;;;5093603;28;20837;-47
2024/01/12 01:26:26;;;;;;;48.83;25.80;;;-0.40;99.90;;;;;;5093418;28;20195;-45
2024/01/12 01:28:52;;;;;;;52.27;25.40;;;-0.40;99.90;;;;;;5094300;28;20185;-41
2024/01/12 01:31:18;;;;;;;54.30;25.40;;;-0.40;99.90;;;;;;5092798;28;20418;-41
2024/01/12 01:33:43;;;;;;;49.13;26.63;;;-0.40;99.90;;;;;;5093646;28;20262;-42
2024/01/12 01:36:09;;;;;;;50.23;24.50;;;-0.40;99.90;;;;;;5092775;28;20207;-43
2024/01/12 01:38:36;;;;;;;48.43;26.00;;;-0.40;99.90;;;;;;5093677;28;20270;-39
2024/01/12 01:41:02;;;;;;;51.53;26.70;;;-0.40;99.90;;;;;;5093269;28;20225;-42
2024/01/12 01:43:31;;;;;;;51.67;27.00;;;-0.40;99.90;;;;;;5092081;28;20447;-42
2024/01/12 01:45:56;;;;;;;54.10;26.30;;;-0.40;99.90;;;;;;5091973;28;20677;-40
2024/01/12 01:48:23;;;;;;;51.77;25.90;;;-0.40;99.90;;;;;;5093549;28;20238;-42
2024/01/12 01:50:48;;;;;;;54.37;27.37;;;-0.40;99.90;;;;;;5093546;28;20280;-41
2024/01/12 01:53:16;;;;;;;61.77;26.80;;;-0.40;99.90;;;;;;5093483;28;20268;-42
2024/01/12 01:55:43;;;;;;;54.77;26.80;;;-0.40;99.90;;;;;;5093147;28;20426;-41
2024/01/12 01:58:09;;;;;;;52.30;26.60;;;-0.30;99.90;;;;;;5092886;28;20428;-43
2024/01/12 02:00:38;;;;;;;52.80;26.10;;;-0.30;99.90;;;;;;5093083;28;20753;-41
2024/01/12 02:03:08;;;;;;;52.40;26.37;;;-0.30;99.90;;;;;;5093253;28;20162;-40
2024/01/12 02:05:35;;;;;;;51.10;25.93;;;-0.30;99.90;;;;;;5093019;28;20199;-42
2024/01/12 02:08:02;;;;;;;53.83;28.43;;;-0.30;99.90;;;;;;5093425;28;20918;-42
2024/01/12 02:10:28;;;;;;;60.30;29.67;;;-0.30;99.90;;;;;;5093355;28;20419;-41
2024/01/12 02:12:54;;;;;;;55.67;27.53;;;-0.30;99.90;;;;;;5093064;28;20454;-41
2024/01/12 02:15:24;;;;;;;52.70;27.07;;;-0.30;99.90;;;;;;5096371;28;20202;-43
2024/01/12 02:17:49;;;;;;;57.73;28.10;;;-0.30;99.90;;;;;;5095680;28;20181;-42
2024/01/12 02:20:16;;;;;;;60.10;26.50;;;-0.30;99.90;;;;;;5097219;28;20607;-41
2024/01/12 02:22:43;;;;;;;59.30;28.00;;;-0.30;99.90;;;;;;5097122;28;20213;-42
2024/01/12 02:25:09;;;;;;;62.27;28.47;;;-0.30;99.90;;;;;;5095763;28;20437;-43
2024/01/12 02:27:35;;;;;;;63.57;27.33;;;-0.30;99.90;;;;;;5095545;28;20177;-43
2024/01/12 02:30:01;;;;;;;52.63;25.10;;;-0.30;99.90;;;;;;5097048;28;20179;-41
2024/01/12 02:32:27;;;;;;;59.30;26.33;;;-0.30;99.90;;;;;;5096597;28;20202;-41
2024/01/12 02:34:52;;;;;;;49.67;25.93;;;-0.30;99.90;;;;;;5095634;28;20201;-41
2024/01/12 02:37:21;;;;;;;51.73;25.30;;;-0.30;99.90;;;;;;5078432;28;20193;-42
2024/01/12 02:39:47;;;;;;;61.33;27.73;;;-0.30;99.90;;;;;;5096504;28;20181;-41
2024/01/12 02:42:13;;;;;;;58.97;27.23;;;-0.30;99.90;;;;;;5096417;28;20225;-42
2024/01/12 02:44:43;;;;;;;51.07;26.17;;;-0.30;99.90;;;;;;5096989;28;20623;-46
2024/01/12 02:47:13;;;;;;;58.63;28.23;;;-0.30;99.90;;;;;;5096625;28;20216;-46
2024/01/12 02:49:39;;;;;;;53.70;26.97;;;-0.20;99.90;;;;;;5097982;28;20205;-46
2024/01/12 02:52:07;;;;;;;55.87;26.23;;;-0.20;99.90;;;;;;5097765;28;20184;-45
2024/01/12 02:54:33;;;;;;;59.53;28.23;;;-0.20;99.90;;;;;;5097955;28;20194;-46
2024/01/12 02:57:02;;;;;;;64.83;29.57;;;-0.20;99.90;;;;;;5097510;28;20657;-46
2024/01/12 02:59:27;;;;;;;64.13;30.43;;;-0.20;99.90;;;;;;5096623;28;20193;-45
2024/01/12 03:01:53;;;;;;;58.57;29.87;;;-0.30;99.90;;;;;;5096321;28;20205;-45
2024/01/12 03:04:19;;;;;;;57.53;27.67;;;-0.20;99.90;;;;;;5096426;28;20170;-46
2024/01/12 03:06:44;;;;;;;64.10;28.57;;;-0.20;99.90;;;;;;5094958;28;20198;-45
2024/01/12 03:09:13;;;;;;;70.93;30.43;;;-0.20;99.90;;;;;;5096237;28;20178;-46
2024/01/12 03:11:38;;;;;;;61.83;28.37;;;-0.20;99.90;;;;;;5096246;28;20543;-46
2024/01/12 03:14:04;;;;;;;59.20;28.30;;;-0.20;99.90;;;;;;5095841;28;20189;-47
2024/01/12 03:16:29;;;;;;;63.10;28.03;;;-0.20;99.90;;;;;;5095809;28;20233;-45
2024/01/12 03:18:59;;;;;;;60.47;27.60;;;-0.20;99.90;;;;;;5095723;28;20189;-46
2024/01/12 03:21:25;;;;;;;60.27;27.37;;;-0.20;99.90;;;;;;5095634;28;20206;-45
2024/01/12 03:23:51;;;;;;;50.77;22.37;;;-0.20;99.90;;;;;;5095990;28;20404;-46
2024/01/12 03:26:16;;;;;;;55.43;25.70;;;-0.20;99.90;;;;;;5094381;28;20205;-45
2024/01/12 03:28:42;;;;;;;61.67;30.53;;;-0.10;99.90;;;;;;5095880;28;20209;-46
2024/01/12 03:31:12;;;;;;;57.93;28.07;;;-0.10;99.90;;;;;;5095566;28;20599;-45
2024/01/12 03:33:38;;;;;;;58.40;27.97;;;-0.10;99.90;;;;;;5095564;28;20173;-45
2024/01/12 03:36:07;;;;;;;55.47;25.60;;;-0.10;99.90;;;;;;5095361;28;20205;-47
2024/01/12 03:38:33;;;;;;;57.97;27.00;;;-0.10;99.90;;;;;;5095932;28;20648;-44
2024/01/12 03:41:00;;;;;;;54.10;26.90;;;-0.10;99.90;;;;;;5095291;28;20253;-46
2024/01/12 03:43:25;;;;;;;61.60;28.67;;;-0.10;99.90;;;;;;5095242;28;20193;-45
2024/01/12 03:45:51;;;;;;;62.47;27.67;;;-0.10;99.90;;;;;;5077182;28;20520;-46
2024/01/12 03:48:17;;;;;;;57.67;25.83;;;-0.10;99.90;;;;;;5095388;28;20183;-45
2024/01/12 03:50:46;;;;;;;55.30;25.00;;;-0.10;99.90;;;;;;5095409;28;20562;-45
2024/01/12 03:53:12;;;;;;;45.97;23.07;;;-0.10;99.90;;;;;;5095125;28;20549;-47
2024/01/12 03:55:37;;;;;;;55.60;24.93;;;-0.10;99.90;;;;;;5094948;28;20210;-45
2024/01/12 03:58:06;;;;;;;56.13;24.37;;;0.00;99.90;;;;;;5095312;28;20626;-45
2024/01/12 04:00:33;;;;;;;57.47;26.40;;;-0.10;99.90;;;;;;5095218;28;20182;-45
2024/01/12 04:03:01;;;;;;;56.73;24.80;;;0.00;99.90;;;;;;5095064;28;20203;-47
2024/01/12 04:05:26;;;;;;;53.27;24.23;;;0.00;99.90;;;;;;5077055;28;20209;-46
2024/01/12 04:07:55;;;;;;;58.60;24.90;;;0.00;99.90;;;;;;5076819;28;20199;-47
2024/01/12 04:10:23;;;;;;;57.90;25.03;;;0.00;99.90;;;;;;5094847;28;20515;-46
2024/01/12 04:12:49;;;;;;;63.87;26.07;;;0.00;99.90;;;;;;5094737;28;20678;-46
2024/01/12 04:15:15;;;;;;;64.97;26.03;;;0.00;99.90;;;;;;5094940;28;20202;-46
2024/01/12 04:17:40;;;;;;;60.20;26.07;;;0.00;99.90;;;;;;5094935;28;20281;-46
2024/01/12 04:20:08;;;;;;;68.23;27.23;;;0.00;99.90;;;;;;5094634;28;20595;-45
2024/01/12 04:22:35;;;;;;;61.33;24.87;;;0.00;99.90;;;;;;5094764;28;20210;-48
2024/01/12 04:25:01;;;;;;;59.10;24.00;;;0.00;99.90;;;;;;5094793;28;20603;-46
2024/01/12 04:27:28;;;;;;;60.57;23.60;;;0.00;99.90;;;;;;5094755;28;20181;-47
2024/01/12 04:29:54;;;;;;;64.50;26.00;;;0.00;99.90;;;;;;5076264;28;20176;-47
2024/01/12 04:32:19;;;;;;;65.33;25.73;;;0.00;99.90;;;;;;5093298;28;20189;-48
2024/01/12 04:34:46;;;;;;;62.23;23.83;;;0.00;99.90;;;;;;5095056;28;20188;-45
2024/01/12 04:37:11;;;;;;;60.77;25.43;;;0.00;99.90;;;;;;5093898;28;20419;-45
2024/01/12 04:39:39;;;;;;;59.53;23.37;;;0.00;99.90;;;;;;5094372;28;20190;-45
2024/01/12 04:42:07;;;;;;;53.53;21.93;;;0.00;99.90;;;;;;5094115;28;20214;-48
2024/01/12 04:44:33;;;;;;;56.30;23.57;;;0.00;99.90;;;;;;5094179;28;20201;-46
2024/01/12 04:46:59;;;;;;;55.67;24.20;;;0.10;99.90;;;;;;5094792;28;20432;-39
2024/01/12 04:49:24;;;;;;;59.10;24.63;;;0.10;99.90;;;;;;5094650;28;20179;-47
2024/01/12 04:51:50;;;;;;;56.70;25.67;;;0.00;99.90;;;;;;5076246;28;20190;-45
2024/01/12 04:54:16;;;;;;;63.60;25.77;;;0.10;99.90;;;;;;5095611;28;20179;-45
2024/01/12 04:56:43;;;;;;;51.10;24.20;;;0.00;99.90;;;;;;5093122;28;20235;-48
2024/01/12 04:59:09;;;;;;;59.23;25.77;;;0.00;99.90;;;;;;5094752;28;20178;-46
2024/01/12 05:01:36;;;;;;;57.60;25.87;;;0.00;99.90;;;;;;5092651;28;20216;-45
2024/01/12 05:04:02;;;;;;;57.67;24.90;;;0.00;99.90;;;;;;5093884;28;20205;-47
2024/01/12 05:06:27;;;;;;;60.10;24.50;;;0.10;99.90;;;;;;5093769;28;20712;-45
2024/01/12 05:08:53;;;;;;;58.50;24.40;;;0.00;99.90;;;;;;5094270;28;20189;-44
2024/01/12 05:11:22;;;;;;;56.00;24.47;;;0.10;99.90;;;;;;5092469;28;20597;-44
2024/01/12 05:13:47;;;;;;;57.30;24.73;;;0.00;99.90;;;;;;5093699;28;20258;-44
2024/01/12 05:16:13;;;;;;;60.53;25.70;;;0.00;99.90;;;;;;5093570;28;20284;-45
2024/01/12 05:18:38;;;;;;;60.47;25.60;;;0.10;99.90;;;;;;5093576;28;20174;-46
2024/01/12 05:21:08;;;;;;;55.87;24.90;;;0.10;99.90;;;;;;5093717;28;20203;-46
2024/01/12 05:23:33;;;;;;;65.10;25.30;;;0.10;99.90;;;;;;5076444;28;20568;-46
2024/01/12 05:25:59;;;;;;;66.23;26.40;;;0.10;99.90;;;;;;5093435;28;20281;-46
2024/01/12 05:28:25;;;;;;;63.40;26.43;;;0.10;99.90;;;;;;5093475;28;20246;-45
2024/01/12 05:30:53;;;;;;;66.57;25.63;;;0.10;99.90;;;;;;5092279;28;20188;-45
2024/01/12 05:33:19;;;;;;;55.40;25.90;;;0.10;99.90;;;;;;5093494;28;20181;-47
2024/01/12 05:35:44;;;;;;;56.17;23.87;;;0.10;99.90;;;;;;5075720;28;20569;-47
2024/01/12 05:38:10;;;;;;;57.53;25.10;;;0.10;99.90;;;;;;5093359;28;20182;-47
2024/01/12 05:40:35;;;;;;;55.33;24.37;;;0.10;99.90;;;;;;5093369;28;20184;-46
2024/01/12 05:43:01;;;;;;;57.67;23.93;;;0.10;99.90;;;;;;5093127;28;20217;-46
2024/01/12 05:45:26;;;;;;;64.93;25.80;;;0.10;99.90;;;;;;5093320;28;20205;-46
2024/01/12 05:47:55;;;;;;;68.10;27.07;;;0.10;99.90;;;;;;5093514;28;20174;-46
2024/01/12 05:50:21;;;;;;;63.53;25.80;;;0.10;99.90;;;;;;5097276;28;20182;-45
2024/01/12 05:52:47;;;;;;;57.93;25.90;;;0.10;99.90;;;;;;5096660;28;20251;-47
2024/01/12 05:55:12;;;;;;;64.03;28.17;;;0.10;99.90;;;;;;5097621;28;20251;-46
2024/01/12 05:57:38;;;;;;;68.57;27.27;;;0.10;99.90;;;;;;5097660;28;20650;-47
2024/01/12 06:00:05;;;;;;;65.93;27.23;;;0.10;99.90;;;;;;5097703;28;20182;-47
2024/01/12 06:02:31;;;;;;;65.43;26.63;;;0.10;99.90;;;;;;5097481;28;20263;-47
2024/01/12 06:04:57;;;;;;;64.37;25.97;;;0.10;99.90;;;;;;5078974;28;20447;-48
2024/01/12 06:07:23;;;;;;;57.43;25.97;;;0.10;99.90;;;;;;5097097;28;20587;-47
2024/01/12 06:09:48;;;;;;;63.77;26.43;;;0.20;99.90;;;;;;5097338;28;20175;-50
2024/01/12 06:12:14;;;;;;;67.03;26.63;;;0.20;99.90;;;;;;5097315;28;20179;-47
2024/01/12 06:14:40;;;;;;;61.17;26.70;;;0.20;99.90;;;;;;5096964;28;20269;-45
2024/01/12 06:17:08;;;;;;;66.67;26.50;;;0.20;99.90;;;;;;5096988;28;20179;-46
2024/01/12 06:19:34;;;;;;;74.03;27.30;;;0.20;99.90;;;;;;5096919;28;20178;-47
2024/01/12 06:21:59;;;;;;;66.87;27.60;;;0.20;99.90;;;;;;5096842;28;20689;-49
2024/01/12 06:24:26;;;;;;;65.73;25.67;;;0.10;99.90;;;;;;5078626;28;20179;-48
2024/01/12 06:26:52;;;;;;;66.97;25.87;;;0.20;99.90;;;;;;5096952;28;20333;-45
2024/01/12 06:29:18;;;;;;;65.03;27.10;;;0.20;99.90;;;;;;5097033;28;20897;-46
2024/01/12 06:31:49;;;;;;;62.13;26.47;;;0.20;99.90;;;;;;5096994;28;20181;-48
2024/01/12 06:34:15;;;;;;;66.80;27.03;;;0.20;99.90;;;;;;5096730;28;20171;-47
2024/01/12 06:36:44;;;;;;;69.53;27.07;;;0.20;99.90;;;;;;5095440;28;20442;-48
2024/01/12 06:39:10;;;;;;;60.83;25.83;;;0.20;99.90;;;;;;5097341;28;20215;-47
2024/01/12 06:41:46;;;;;;;66.97;26.10;;;0.20;99.90;;;;;;5096294;28;20471;-47
2024/01/12 06:44:12;;;;;;;62.23;26.70;;;0.20;99.90;;;;;;5095831;28;20174;-47
2024/01/12 06:46:47;;;;;;;64.23;28.03;;;0.20;99.90;;;;;;5097936;28;20201;-42
2024/01/12 06:49:12;;;;;;;74.57;29.73;;;0.20;99.90;;;;;;5097770;28;20537;-45
2024/01/12 06:51:38;;;;;;;71.27;28.47;;;0.20;99.90;;;;;;5097496;28;20186;-47
2024/01/12 06:54:04;;;;;;;71.93;27.77;;;0.20;99.90;;;;;;5097245;28;20187;-47
2024/01/12 06:56:30;;;;;;;68.47;27.37;;;0.20;99.90;;;;;;5097732;28;20202;-41
2024/01/12 06:58:56;;;;;;;72.20;29.77;;;0.20;99.90;;;;;;5078696;28;20193;-46
2024/01/12 07:01:22;;;;;;;76.07;30.70;;;0.20;99.90;;;;;;5094610;28;20210;-46
2024/01/12 07:03:47;;;;;;;70.73;28.13;;;0.20;99.90;;;;;;5096263;28;20185;-48
2024/01/12 07:06:13;;;;;;;73.03;30.03;;;0.20;99.90;;;;;;5096287;28;20195;-46
2024/01/12 07:08:39;;;;;;;71.03;29.50;;;0.20;99.90;;;;;;5096355;28;20262;-43
2024/01/12 07:11:07;;;;;;;70.90;28.40;;;0.20;99.90;;;;;;5096396;28;20201;-41
2024/01/12 07:13:33;;;;;;;66.87;27.67;;;0.20;99.90;;;;;;5061469;28;20565;-41
2024/01/12 07:15:58;;;;;;;62.73;27.20;;;0.20;99.90;;;;;;5096317;28;20202;-41
2024/01/12 07:18:24;;;;;;;60.77;25.83;;;0.20;99.90;;;;;;5094398;28;20187;-40
2024/01/12 07:20:51;;;;;;;59.47;25.93;;;0.20;99.90;;;;;;5096747;28;20179;-40
2024/01/12 07:23:16;;;;;;;55.37;24.23;;;0.20;99.90;;;;;;5096345;28;20175;-41
2024/01/12 07:25:42;;;;;;;62.13;25.63;;;0.20;99.90;;;;;;5077854;28;20213;-42
2024/01/12 07:28:08;;;;;;;64.70;27.93;;;0.20;99.90;;;;;;5095671;28;20184;-43
2024/01/12 07:30:33;;;;;;;67.67;28.40;;;0.20;99.90;;;;;;5095611;28;20182;-42
2024/01/12 07:32:59;;;;;;;70.23;28.60;;;0.20;99.90;;;;;;5095825;28;20239;-42
2024/01/12 07:35:28;;;;;;;63.63;25.63;;;0.20;99.90;;;;;;5095511;28;20291;-43
2024/01/12 07:37:53;;;;;;;75.30;28.53;;;0.20;99.90;;;;;;5095441;28;20192;-43
2024/01/12 07:40:19;;;;;;;66.20;27.10;;;0.20;99.90;;;;;;5095493;28;20182;-43
2024/01/12 07:42:44;;;;;;;62.53;27.57;;;0.20;99.90;;;;;;5095390;28;20210;-41
2024/01/12 07:45:13;;;;;;;75.07;29.77;;;0.20;99.90;;;;;;5095561;28;20206;-42
2024/01/12 07:47:38;;;;;;;74.83;33.13;;;0.20;99.90;;;;;;5095729;28;20214;-43
2024/01/12 07:50:06;;;;;;;76.80;33.07;;;0.30;99.90;;;;;;5095377;28;20206;-41
2024/01/12 07:52:32;;;;;;;68.60;27.87;;;0.30;99.90;;;;;;5095495;28;20194;-41
2024/01/12 07:54:57;;;;;;;72.63;26.87;;;0.20;99.90;;;;;;5095214;28;20206;-41
2024/01/12 07:57:23;;;;;;;76.37;28.20;;;0.20;99.90;;;;;;5093546;28;20553;-41
2024/01/12 07:59:50;;;;;;;69.30;30.83;;;0.30;99.90;;;;;;5095691;28;20527;-42
2024/01/12 08:02:16;;;;;;;61.70;26.17;;;0.30;99.90;;;;;;5094919;28;20210;-41
2024/01/12 08:04:44;;;;;;;65.97;27.80;;;0.30;99.90;;;;;;5094857;28;20175;-42
2024/01/12 08:07:13;;;;;;;70.67;30.17;;;0.30;99.90;;;;;;5094917;28;20178;-41
2024/01/12 08:09:40;;;;;;;63.70;26.13;;;0.30;99.90;;;;;;5095878;28;20252;-40
2024/01/12 08:12:06;;;;;;;60.63;26.73;;;0.30;99.90;;;;;;5094250;28;20212;-40
2024/01/12 08:14:31;;;;;;;62.43;26.40;;;0.30;99.90;;;;;;5095082;28;20182;-42
2024/01/12 08:17:02;;;;;;;65.27;27.10;;;0.30;99.90;;;;;;5094704;28;20202;-43
2024/01/12 08:19:30;;;;;;;70.50;26.80;;;0.40;99.90;;;;;;5094758;28;20566;-41
2024/01/12 08:21:56;;;;;;;67.40;26.60;;;0.40;99.90;;;;;;5094968;28;20241;-42
2024/01/12 08:24:25;;;;;;;73.07;28.33;;;0.40;99.90;;;;;;5094753;28;20202;-41
2024/01/12 08:26:56;;;;;;;70.70;26.73;;;0.40;99.90;;;;;;5094420;28;20666;-42
2024/01/12 08:29:22;;;;;;;72.93;27.73;;;0.40;99.90;;;;;;5094710;28;20219;-41
2024/01/12 08:31:51;;;;;;;74.53;28.07;;;0.40;99.90;;;;;;5094505;28;20273;-42
2024/01/12 08:34:19;;;;;;;69.50;28.70;;;0.40;99.90;;;;;;5060087;28;20270;-41
2024/01/12 08:36:45;;;;;;;72.83;28.00;;;0.40;99.90;;;;;;5094331;28;20197;-40
2024/01/12 08:39:10;;;;;;;72.37;27.57;;;0.40;99.90;;;;;;5094305;28;20666;-41
2024/01/12 08:41:36;;;;;;;78.43;28.50;;;0.40;99.90;;;;;;5094181;28;20619;-41
2024/01/12 08:44:02;;;;;;;71.73;27.17;;;0.40;99.90;;;;;;5094498;28;20620;-43
2024/01/12 08:46:27;;;;;;;59.70;24.53;;;0.40;99.90;;;;;;5092898;28;20740;-42
2024/01/12 08:48:54;;;;;;;57.80;25.30;;;0.50;99.90;;;;;;5094336;28;20265;-43
2024/01/12 08:51:20;;;;;;;52.77;22.27;;;0.50;99.90;;;;;;5094017;28;20260;-43
2024/01/12 08:57:08;;;;;;;51.73;24.27;;;0.50;99.90;;;;;;5094077;28;20208;-41
2024/01/12 08:59:33;;;;;;;52.60;23.87;;;0.50;99.90;;;;;;5076112;28;20279;-43
2024/01/12 09:02:00;;;;;;;65.30;24.07;;;0.50;99.90;;;;;;5094023;28;20206;-42
2024/01/12 09:04:28;;;;;;;59.23;24.87;;;0.60;99.90;;;;;;5094113;28;20174;-43
2024/01/12 09:06:53;;;;;;;63.40;26.17;;;0.60;99.90;;;;;;5093757;28;20570;-43
2024/01/12 09:09:19;;;;;;;60.10;27.33;;;0.60;99.90;;;;;;5094047;28;20185;-42
2024/01/12 09:11:45;;;;;;;60.27;27.27;;;0.60;99.90;;;;;;5094006;28;20178;-41
2024/01/12 09:14:13;;;;;;;47.60;21.97;;;0.60;99.90;;;;;;5093202;28;20201;-41
2024/01/12 09:16:39;;;;;;;49.40;21.20;;;0.60;99.90;;;;;;5093625;28;20200;-42
2024/01/12 09:19:06;;;;;;;55.93;23.40;;;0.60;99.90;;;;;;5093937;28;20908;-42
2024/01/12 09:21:32;;;;;;;52.93;23.37;;;0.70;99.90;;;;;;5094053;28;20563;-42
2024/01/12 09:23:57;;;;;;;54.13;24.17;;;0.70;99.90;;;;;;5092310;28;20179;-40
2024/01/12 09:26:23;;;;;;;53.40;23.60;;;0.70;99.90;;;;;;5093454;28;20202;-40
2024/01/12 09:28:49;;;;;;;40.43;19.83;;;0.70;99.90;;;;;;5092420;28;20594;-48
2024/01/12 09:31:15;;;;;;;45.53;20.10;;;0.70;99.90;;;;;;5093035;28;20683;-47
2024/01/12 09:33:41;;;;;;;44.83;18.33;;;0.70;99.90;;;;;;5092248;28;20214;-46
2024/01/12 09:36:07;;;;;;;38.30;15.20;;;0.70;99.90;;;;;;5093428;28;20202;-47
2024/01/12 09:38:33;;;;;;;31.37;15.23;;;0.70;99.90;;;;;;5093769;28;20611;-46
2024/01/12 09:41:01;;;;;;;31.73;12.97;;;0.80;99.90;;;;;;5093590;28;20206;-48
2024/01/12 09:43:31;;;;;;;26.67;13.67;;;0.80;99.90;;;;;;5093270;28;20198;-46
2024/01/12 09:46:04;;;;;;;28.80;13.70;;;0.80;99.90;;;;;;5093234;28;20186;-46
2024/01/12 09:48:30;;;;;;;41.87;20.87;;;0.80;99.90;;;;;;5092209;28;20713;-47
2024/01/12 09:50:58;;;;;;;46.37;23.40;;;0.80;99.90;;;;;;5075768;28;20278;-46
2024/01/12 09:53:24;;;;;;;43.77;19.63;;;0.80;99.90;;;;;;5093185;28;20723;-47
2024/01/12 09:55:49;;;;;;;34.00;17.93;;;0.90;99.90;;;;;;5093314;28;20289;-46
2024/01/12 09:58:20;;;;;;;35.77;16.47;;;0.90;99.90;;;;;;5093416;28;20541;-48
2024/01/12 10:00:47;;;;;;;40.57;17.47;;;0.90;99.90;;;;;;5093824;28;20186;-44
2024/01/12 10:03:16;;;;;;;44.53;20.67;;;0.90;99.90;;;;;;5093410;28;20218;-40
2024/01/12 10:05:43;;;;;;;48.30;19.57;;;0.90;99.90;;;;;;5093088;28;20195;-44
2024/01/12 10:08:09;;;;;;;40.60;18.63;;;0.90;99.90;;;;;;5093433;28;20262;-42
2024/01/12 10:10:34;;;;;;;43.00;18.67;;;0.90;99.90;;;;;;5075277;28;20221;-44
2024/01/12 10:13:03;;;;;;;39.13;16.97;;;0.90;99.90;;;;;;5093223;28;20179;-41
2024/01/12 10:15:32;;;;;;;35.40;16.30;;;0.90;99.90;;;;;;5093178;28;20285;-42
2024/01/12 10:17:58;;;;;;;28.13;13.97;;;0.90;99.90;;;;;;5093036;28;20183;-42
2024/01/12 10:20:26;;;;;;;36.43;15.83;;;1.00;99.90;;;;;;5091895;28;20274;-41
2024/01/12 10:22:59;;;;;;;41.40;18.20;;;1.00;99.90;;;;;;5093334;28;20207;-41
2024/01/12 10:25:25;;;;;;;36.30;19.37;;;1.00;99.90;;;;;;5075455;28;20600;-44
2024/01/12 10:27:57;;;;;;;30.90;15.33;;;1.00;99.90;;;;;;5093343;28;20179;-41
2024/01/12 10:30:27;;;;;;;28.23;14.00;;;1.00;99.90;;;;;;5092955;28;20182;-43
2024/01/12 10:32:53;;;;;;;34.30;14.23;;;1.00;99.90;;;;;;5092911;28;20193;-42
2024/01/12 10:35:20;;;;;;;37.63;16.47;;;1.00;99.90;;;;;;5094463;28;20226;-41
2024/01/12 10:37:49;;;;;;;35.70;13.33;;;1.00;99.90;;;;;;5096612;28;20247;-43
2024/01/12 10:40:16;;;;;;;37.43;19.80;;;1.00;99.90;;;;;;5096572;28;20651;-41
2024/01/12 10:42:47;;;;;;;31.63;17.00;;;1.00;99.90;;;;;;5096337;28;20218;-42
2024/01/12 10:45:13;;;;;;;39.07;19.03;;;1.00;99.90;;;;;;5096750;28;20202;-43
2024/01/12 10:47:43;;;;;;;36.80;16.67;;;0.90;99.90;;;;;;5096693;28;20182;-43
2024/01/12 10:50:15;;;;;;;32.93;14.43;;;1.00;99.90;;;;;;5096990;28;20190;-43
2024/01/12 10:53:06;;;;;;;25.77;13.07;;;1.00;99.90;;;;;;5096751;28;20163;-43
2024/01/12 10:55:36;;;;;;;28.83;12.93;;;1.00;99.90;;;;;;5096732;28;20728;-42
2024/01/12 10:58:03;;;;;;;43.73;25.23;;;1.00;99.90;;;;;;5096518;28;20175;-41
2024/01/12 11:00:32;;;;;;;36.30;19.87;;;1.00;99.90;;;;;;5096106;28;20277;-40
2024/01/12 11:03:03;;;;;;;29.93;14.67;;;1.00;99.90;;;;;;5078473;28;20209;-43
2024/01/12 11:05:29;;;;;;;19.33;10.50;;;1.00;99.90;;;;;;5094864;28;20206;-41
2024/01/12 11:08:10;;;;;;;24.50;10.40;;;1.00;99.90;;;;;;5096058;28;20233;-44
2024/01/12 11:10:41;;;;;;;21.80;10.47;;;1.00;99.90;;;;;;5096030;28;20633;-43
2024/01/12 11:13:07;;;;;;;27.87;12.57;;;1.00;99.90;;;;;;5095084;28;20194;-42
2024/01/12 11:15:33;;;;;;;31.27;12.70;;;1.00;99.90;;;;;;5078168;28;20209;-43
2024/01/12 11:17:59;;;;;;;30.23;13.10;;;1.00;99.90;;;;;;5094669;28;20183;-43
2024/01/12 11:20:29;;;;;;;25.07;12.97;;;1.00;99.90;;;;;;5094815;28;20195;-42
2024/01/12 11:22:55;;;;;;;32.50;14.47;;;1.00;99.90;;;;;;5095752;28;20209;-44
2024/01/12 11:25:21;;;;;;;30.73;12.00;;;1.00;99.90;;;;;;5094500;28;20575;-43
2024/01/12 11:27:49;;;;;;;26.03;11.67;;;1.00;99.90;;;;;;5095997;28;20605;-45
2024/01/12 11:30:17;;;;;;;23.83;12.40;;;1.10;99.90;;;;;;5095436;28;20185;-41
2024/01/12 11:32:45;;;;;;;24.83;11.57;;;1.10;99.90;;;;;;5095669;28;20673;-40
2024/01/12 11:35:15;;;;;;;27.73;12.57;;;1.10;99.90;;;;;;5095742;28;20629;-43
2024/01/12 11:37:45;;;;;;;23.73;12.10;;;1.10;99.90;;;;;;5095413;28;20190;-41
2024/01/12 11:40:15;;;;;;;32.67;13.17;;;1.20;99.90;;;;;;5095468;28;20266;-42
2024/01/12 11:42:42;;;;;;;25.07;12.03;;;1.20;99.90;;;;;;5095204;28;20315;-41
2024/01/12 11:45:10;;;;;;;23.23;12.40;;;1.30;99.90;;;;;;5095299;28;20218;-41
2024/01/12 11:47:40;;;;;;;27.53;12.63;;;1.30;99.90;;;;;;5095471;28;20229;-41
2024/01/12 11:50:08;;;;;;;31.63;12.63;;;1.30;99.90;;;;;;5095363;28;20175;-44
2024/01/12 11:52:36;;;;;;;31.63;12.50;;;1.40;99.90;;;;;;5095313;28;20666;-41
2024/01/12 11:55:07;;;;;;;33.00;14.40;;;1.40;99.90;;;;;;5095418;28;20202;-41
2024/01/12 11:57:38;;;;;;;32.70;13.00;;;1.40;99.90;;;;;;5095985;28;20256;-40
2024/01/12 12:00:06;;;;;;;30.60;13.77;;;1.40;99.90;;;;;;5096609;28;20210;-42
2024/01/12 12:02:35;;;;;;;30.27;14.23;;;1.50;99.90;;;;;;5078370;28;20230;-41
2024/01/12 12:05:09;;;;;;;37.03;14.60;;;1.50;99.90;;;;;;5096368;28;20210;-41
2024/01/12 12:07:40;;;;;;;28.60;14.10;;;1.50;99.90;;;;;;5096287;28;20246;-41
2024/01/12 12:10:08;;;;;;;31.80;13.97;;;1.50;99.90;;;;;;5095647;28;20171;-42
2024/01/12 12:12:37;;;;;;;29.50;13.87;;;1.60;99.90;;;;;;5095342;28;20240;-41
2024/01/12 12:15:05;;;;;;;29.23;13.10;;;1.60;99.90;;;;;;5094753;28;20214;-41
2024/01/12 12:17:33;;;;;;;41.33;15.37;;;1.60;99.90;;;;;;5095171;28;20193;-41
2024/01/12 12:19:59;;;;;;;31.33;14.17;;;1.60;99.90;;;;;;5095065;28;20266;-41
2024/01/12 12:22:25;;;;;;;31.80;15.13;;;1.70;99.90;;;;;;5094612;28;20356;-40
2024/01/12 12:24:51;;;;;;;37.50;16.27;;;1.70;99.90;;;;;;5094494;28;20197;-47
2024/01/12 12:27:18;;;;;;;31.97;15.37;;;1.70;99.90;;;;;;5094864;28;20183;-46
2024/01/12 12:29:44;;;;;;;39.30;17.03;;;1.70;99.90;;;;;;5094632;28;20249;-46
2024/01/12 12:32:13;;;;;;;40.00;18.80;;;1.70;99.90;;;;;;5076618;28;20179;-45
2024/01/12 12:34:39;;;;;;;42.53;19.00;;;1.70;99.90;;;;;;5094683;28;20182;-46